sensor_id;sensor_type;location;lat;lon;timestamp;P1;durP1;ratioP1;P2;durP2;ratioP2
76262;SDS011;65080;50.908;6.916;2022-11-15T00:01:14;9.60;;;6.63;;
76262;SDS011;65080;50.908;6.916;2022-11-15T00:03:44;9.97;;;7.07;;
76262;SDS011;65080;50.908;6.916;2022-11-15T00:06:12;13.70;;;6.23;;
76262;SDS011;65080;50.908;6.916;2022-11-15T00:08:40;8.63;;;6.00;;
76262;SDS011;65080;50.908;6.916;2022-11-15T00:11:09;9.80;;;7.03;;
76262;SDS011;65080;50.908;6.916;2022-11-15T00:13:39;9.97;;;6.93;;
76262;SDS011;65080;50.908;6.916;2022-11-15T00:16:09;11.17;;;7.07;;
76262;SDS011;65080;50.908;6.916;2022-11-15T00:18:38;6.67;;;5.97;;
76262;SDS011;65080;50.908;6.916;2022-11-15T00:21:10;8.83;;;6.70;;
76262;SDS011;65080;50.908;6.916;2022-11-15T00:23:39;10.93;;;6.97;;
76262;SDS011;65080;50.908;6.916;2022-11-15T00:26:10;12.23;;;7.03;;
76262;SDS011;65080;50.908;6.916;2022-11-15T00:28:40;8.50;;;6.73;;
76262;SDS011;65080;50.908;6.916;2022-11-15T00:31:10;8.67;;;6.90;;
76262;SDS011;65080;50.908;6.916;2022-11-15T00:33:42;9.30;;;5.80;;
76262;SDS011;65080;50.908;6.916;2022-11-15T00:36:11;7.73;;;6.53;;
76262;SDS011;65080;50.908;6.916;2022-11-15T00:38:40;11.07;;;7.20;;
76262;SDS011;65080;50.908;6.916;2022-11-15T00:41:08;10.30;;;6.90;;
76262;SDS011;65080;50.908;6.916;2022-11-15T00:43:36;9.07;;;6.70;;
76262;SDS011;65080;50.908;6.916;2022-11-15T00:46:06;8.10;;;5.63;;
76262;SDS011;65080;50.908;6.916;2022-11-15T00:48:37;11.60;;;6.57;;
76262;SDS011;65080;50.908;6.916;2022-11-15T00:51:05;9.90;;;6.80;;
76262;SDS011;65080;50.908;6.916;2022-11-15T00:53:33;11.80;;;7.10;;
76262;SDS011;65080;50.908;6.916;2022-11-15T00:56:02;10.97;;;7.17;;
76262;SDS011;65080;50.908;6.916;2022-11-15T00:58:30;9.50;;;6.67;;
76262;SDS011;65080;50.908;6.916;2022-11-15T01:01:04;11.30;;;6.67;;
76262;SDS011;65080;50.908;6.916;2022-11-15T01:03:34;12.13;;;6.50;;
76262;SDS011;65080;50.908;6.916;2022-11-15T01:06:04;7.30;;;5.63;;
76262;SDS011;65080;50.908;6.916;2022-11-15T01:08:33;10.97;;;7.43;;
76262;SDS011;65080;50.908;6.916;2022-11-15T01:11:02;9.07;;;6.70;;
76262;SDS011;65080;50.908;6.916;2022-11-15T01:13:31;8.57;;;6.30;;
76262;SDS011;65080;50.908;6.916;2022-11-15T01:16:05;10.30;;;6.67;;
76262;SDS011;65080;50.908;6.916;2022-11-15T01:18:33;8.20;;;6.03;;
76262;SDS011;65080;50.908;6.916;2022-11-15T01:21:05;8.20;;;6.60;;
76262;SDS011;65080;50.908;6.916;2022-11-15T01:23:35;10.50;;;6.80;;
76262;SDS011;65080;50.908;6.916;2022-11-15T01:26:04;10.90;;;6.53;;
76262;SDS011;65080;50.908;6.916;2022-11-15T01:28:34;10.73;;;6.90;;
76262;SDS011;65080;50.908;6.916;2022-11-15T01:31:05;8.30;;;6.43;;
76262;SDS011;65080;50.908;6.916;2022-11-15T01:33:37;11.67;;;6.87;;
76262;SDS011;65080;50.908;6.916;2022-11-15T01:36:07;10.03;;;7.87;;
76262;SDS011;65080;50.908;6.916;2022-11-15T01:38:37;11.53;;;6.87;;
76262;SDS011;65080;50.908;6.916;2022-11-15T01:41:05;6.83;;;5.90;;
76262;SDS011;65080;50.908;6.916;2022-11-15T01:43:34;8.53;;;6.93;;
76262;SDS011;65080;50.908;6.916;2022-11-15T01:46:04;8.93;;;6.83;;
76262;SDS011;65080;50.908;6.916;2022-11-15T01:48:40;10.47;;;7.40;;
76262;SDS011;65080;50.908;6.916;2022-11-15T01:51:11;9.40;;;6.87;;
76262;SDS011;65080;50.908;6.916;2022-11-15T01:53:42;8.60;;;6.60;;
76262;SDS011;65080;50.908;6.916;2022-11-15T01:56:16;11.40;;;7.17;;
76262;SDS011;65080;50.908;6.916;2022-11-15T01:58:48;10.40;;;7.00;;
76262;SDS011;65080;50.908;6.916;2022-11-15T02:01:17;10.27;;;7.07;;
76262;SDS011;65080;50.908;6.916;2022-11-15T02:03:48;9.80;;;6.80;;
76262;SDS011;65080;50.908;6.916;2022-11-15T02:06:20;7.47;;;6.17;;
76262;SDS011;65080;50.908;6.916;2022-11-15T02:08:49;10.30;;;7.17;;
76262;SDS011;65080;50.908;6.916;2022-11-15T02:11:18;9.87;;;7.40;;
76262;SDS011;65080;50.908;6.916;2022-11-15T02:13:46;8.57;;;6.50;;
76262;SDS011;65080;50.908;6.916;2022-11-15T02:16:16;10.30;;;6.70;;
76262;SDS011;65080;50.908;6.916;2022-11-15T02:18:55;9.07;;;6.80;;
76262;SDS011;65080;50.908;6.916;2022-11-15T02:21:35;8.47;;;6.80;;
76262;SDS011;65080;50.908;6.916;2022-11-15T02:24:24;7.27;;;6.40;;
76262;SDS011;65080;50.908;6.916;2022-11-15T02:27:15;9.50;;;6.70;;
76262;SDS011;65080;50.908;6.916;2022-11-15T02:30:24;9.77;;;6.70;;
76262;SDS011;65080;50.908;6.916;2022-11-15T02:32:57;8.27;;;6.63;;
76262;SDS011;65080;50.908;6.916;2022-11-15T02:35:32;9.30;;;7.30;;
76262;SDS011;65080;50.908;6.916;2022-11-15T02:38:13;12.07;;;7.20;;
76262;SDS011;65080;50.908;6.916;2022-11-15T02:40:52;7.87;;;6.40;;
76262;SDS011;65080;50.908;6.916;2022-11-15T02:43:27;8.43;;;6.83;;
76262;SDS011;65080;50.908;6.916;2022-11-15T02:46:27;8.50;;;5.80;;
76262;SDS011;65080;50.908;6.916;2022-11-15T02:49:18;9.17;;;6.30;;
76262;SDS011;65080;50.908;6.916;2022-11-15T02:51:47;12.20;;;7.10;;
76262;SDS011;65080;50.908;6.916;2022-11-15T02:54:18;10.87;;;7.20;;
76262;SDS011;65080;50.908;6.916;2022-11-15T02:56:49;8.53;;;6.53;;
76262;SDS011;65080;50.908;6.916;2022-11-15T02:59:23;9.20;;;5.90;;
76262;SDS011;65080;50.908;6.916;2022-11-15T03:02:06;8.80;;;6.50;;
76262;SDS011;65080;50.908;6.916;2022-11-15T03:04:47;9.03;;;6.03;;
76262;SDS011;65080;50.908;6.916;2022-11-15T03:07:24;7.03;;;5.90;;
76262;SDS011;65080;50.908;6.916;2022-11-15T03:10:00;8.13;;;5.70;;
76262;SDS011;65080;50.908;6.916;2022-11-15T03:12:34;6.70;;;5.60;;
76262;SDS011;65080;50.908;6.916;2022-11-15T03:15:09;8.43;;;5.97;;
76262;SDS011;65080;50.908;6.916;2022-11-15T03:17:45;7.97;;;5.90;;
76262;SDS011;65080;50.908;6.916;2022-11-15T03:20:18;5.87;;;4.73;;
76262;SDS011;65080;50.908;6.916;2022-11-15T03:22:47;7.80;;;5.67;;
76262;SDS011;65080;50.908;6.916;2022-11-15T03:25:17;9.13;;;5.20;;
76262;SDS011;65080;50.908;6.916;2022-11-15T03:27:48;11.23;;;5.57;;
76262;SDS011;65080;50.908;6.916;2022-11-15T03:30:19;7.03;;;5.27;;
76262;SDS011;65080;50.908;6.916;2022-11-15T03:32:50;10.50;;;6.60;;
76262;SDS011;65080;50.908;6.916;2022-11-15T03:35:21;6.60;;;5.50;;
76262;SDS011;65080;50.908;6.916;2022-11-15T03:37:52;8.77;;;6.00;;
76262;SDS011;65080;50.908;6.916;2022-11-15T03:40:24;8.57;;;5.63;;
76262;SDS011;65080;50.908;6.916;2022-11-15T03:42:58;7.70;;;6.07;;
76262;SDS011;65080;50.908;6.916;2022-11-15T03:45:32;8.27;;;5.30;;
76262;SDS011;65080;50.908;6.916;2022-11-15T03:48:09;5.97;;;5.07;;
76262;SDS011;65080;50.908;6.916;2022-11-15T03:50:40;9.80;;;5.50;;
76262;SDS011;65080;50.908;6.916;2022-11-15T03:53:10;10.10;;;5.50;;
76262;SDS011;65080;50.908;6.916;2022-11-15T03:55:39;7.93;;;5.50;;
76262;SDS011;65080;50.908;6.916;2022-11-15T03:58:07;8.50;;;5.10;;
76262;SDS011;65080;50.908;6.916;2022-11-15T04:00:35;11.53;;;5.30;;
76262;SDS011;65080;50.908;6.916;2022-11-15T04:03:04;6.87;;;5.33;;
76262;SDS011;65080;50.908;6.916;2022-11-15T04:05:35;6.20;;;5.00;;
76262;SDS011;65080;50.908;6.916;2022-11-15T04:08:03;6.97;;;5.53;;
76262;SDS011;65080;50.908;6.916;2022-11-15T04:10:31;6.67;;;5.83;;
76262;SDS011;65080;50.908;6.916;2022-11-15T04:13:01;5.27;;;4.77;;
76262;SDS011;65080;50.908;6.916;2022-11-15T04:15:29;7.60;;;5.40;;
76262;SDS011;65080;50.908;6.916;2022-11-15T04:17:57;5.80;;;4.90;;
76262;SDS011;65080;50.908;6.916;2022-11-15T04:20:27;8.17;;;5.53;;
76262;SDS011;65080;50.908;6.916;2022-11-15T04:23:15;8.93;;;4.67;;
76262;SDS011;65080;50.908;6.916;2022-11-15T04:26:04;6.97;;;5.53;;
76262;SDS011;65080;50.908;6.916;2022-11-15T04:28:33;8.93;;;6.13;;
76262;SDS011;65080;50.908;6.916;2022-11-15T04:31:01;6.77;;;5.70;;
76262;SDS011;65080;50.908;6.916;2022-11-15T04:33:33;7.17;;;5.67;;
76262;SDS011;65080;50.908;6.916;2022-11-15T04:36:01;6.93;;;5.77;;
76262;SDS011;65080;50.908;6.916;2022-11-15T04:38:48;5.90;;;5.30;;
76262;SDS011;65080;50.908;6.916;2022-11-15T04:41:16;5.93;;;5.33;;
76262;SDS011;65080;50.908;6.916;2022-11-15T04:43:45;8.37;;;5.70;;
76262;SDS011;65080;50.908;6.916;2022-11-15T04:46:13;6.43;;;5.80;;
76262;SDS011;65080;50.908;6.916;2022-11-15T04:48:41;9.40;;;6.17;;
76262;SDS011;65080;50.908;6.916;2022-11-15T04:51:09;6.33;;;5.73;;
76262;SDS011;65080;50.908;6.916;2022-11-15T04:53:38;7.10;;;5.43;;
76262;SDS011;65080;50.908;6.916;2022-11-15T04:56:08;7.23;;;5.53;;
76262;SDS011;65080;50.908;6.916;2022-11-15T04:58:36;5.93;;;5.33;;
76262;SDS011;65080;50.908;6.916;2022-11-15T05:01:06;10.23;;;6.60;;
76262;SDS011;65080;50.908;6.916;2022-11-15T05:03:35;6.23;;;5.57;;
76262;SDS011;65080;50.908;6.916;2022-11-15T05:06:21;5.90;;;5.03;;
76262;SDS011;65080;50.908;6.916;2022-11-15T05:08:49;6.70;;;6.00;;
76262;SDS011;65080;50.908;6.916;2022-11-15T05:11:19;8.53;;;5.00;;
76262;SDS011;65080;50.908;6.916;2022-11-15T05:13:47;8.27;;;5.83;;
76262;SDS011;65080;50.908;6.916;2022-11-15T05:16:15;6.40;;;5.43;;
76262;SDS011;65080;50.908;6.916;2022-11-15T05:18:44;10.70;;;6.13;;
76262;SDS011;65080;50.908;6.916;2022-11-15T05:21:12;8.43;;;5.50;;
76262;SDS011;65080;50.908;6.916;2022-11-15T05:23:41;6.43;;;5.30;;
76262;SDS011;65080;50.908;6.916;2022-11-15T05:26:10;6.10;;;5.00;;
76262;SDS011;65080;50.908;6.916;2022-11-15T05:28:39;5.63;;;5.13;;
76262;SDS011;65080;50.908;6.916;2022-11-15T05:31:10;8.30;;;5.70;;
76262;SDS011;65080;50.908;6.916;2022-11-15T05:33:39;7.80;;;5.40;;
76262;SDS011;65080;50.908;6.916;2022-11-15T05:36:10;6.50;;;5.30;;
76262;SDS011;65080;50.908;6.916;2022-11-15T05:38:44;8.73;;;5.80;;
76262;SDS011;65080;50.908;6.916;2022-11-15T05:41:12;6.63;;;5.60;;
76262;SDS011;65080;50.908;6.916;2022-11-15T05:43:43;6.00;;;5.40;;
76262;SDS011;65080;50.908;6.916;2022-11-15T05:46:12;6.93;;;4.73;;
76262;SDS011;65080;50.908;6.916;2022-11-15T05:48:41;6.63;;;4.50;;
76262;SDS011;65080;50.908;6.916;2022-11-15T05:51:15;5.97;;;4.67;;
76262;SDS011;65080;50.908;6.916;2022-11-15T05:53:44;6.70;;;4.60;;
76262;SDS011;65080;50.908;6.916;2022-11-15T05:56:13;4.57;;;4.17;;
76262;SDS011;65080;50.908;6.916;2022-11-15T05:58:43;4.83;;;4.40;;
76262;SDS011;65080;50.908;6.916;2022-11-15T06:01:11;4.27;;;3.80;;
76262;SDS011;65080;50.908;6.916;2022-11-15T06:03:40;5.33;;;4.57;;
76262;SDS011;65080;50.908;6.916;2022-11-15T06:06:08;6.13;;;4.60;;
76262;SDS011;65080;50.908;6.916;2022-11-15T06:08:43;5.87;;;3.43;;
76262;SDS011;65080;50.908;6.916;2022-11-15T06:11:11;5.00;;;3.70;;
76262;SDS011;65080;50.908;6.916;2022-11-15T06:13:39;4.90;;;3.77;;
76262;SDS011;65080;50.908;6.916;2022-11-15T06:16:08;6.77;;;3.93;;
76262;SDS011;65080;50.908;6.916;2022-11-15T06:18:37;3.70;;;3.40;;
76262;SDS011;65080;50.908;6.916;2022-11-15T06:21:05;3.10;;;2.80;;
76262;SDS011;65080;50.908;6.916;2022-11-15T06:23:34;4.17;;;2.73;;
76262;SDS011;65080;50.908;6.916;2022-11-15T06:26:02;3.23;;;2.50;;
76262;SDS011;65080;50.908;6.916;2022-11-15T06:28:31;2.30;;;2.10;;
76262;SDS011;65080;50.908;6.916;2022-11-15T06:31:04;3.50;;;2.10;;
76262;SDS011;65080;50.908;6.916;2022-11-15T06:33:34;3.47;;;2.40;;
76262;SDS011;65080;50.908;6.916;2022-11-15T06:36:04;2.73;;;2.40;;
76262;SDS011;65080;50.908;6.916;2022-11-15T06:38:42;4.00;;;2.50;;
76262;SDS011;65080;50.908;6.916;2022-11-15T06:41:11;2.57;;;2.37;;
76262;SDS011;65080;50.908;6.916;2022-11-15T06:43:41;4.10;;;2.37;;
76262;SDS011;65080;50.908;6.916;2022-11-15T06:46:09;2.10;;;1.90;;
76262;SDS011;65080;50.908;6.916;2022-11-15T06:48:38;2.17;;;1.83;;
76262;SDS011;65080;50.908;6.916;2022-11-15T06:51:07;2.63;;;2.23;;
76262;SDS011;65080;50.908;6.916;2022-11-15T06:53:35;4.90;;;2.00;;
76262;SDS011;65080;50.908;6.916;2022-11-15T06:56:04;4.30;;;1.90;;
76262;SDS011;65080;50.908;6.916;2022-11-15T06:58:33;2.30;;;2.10;;
76262;SDS011;65080;50.908;6.916;2022-11-15T07:01:02;2.13;;;1.90;;
76262;SDS011;65080;50.908;6.916;2022-11-15T07:03:34;2.80;;;1.97;;
76262;SDS011;65080;50.908;6.916;2022-11-15T07:06:04;1.80;;;1.60;;
76262;SDS011;65080;50.908;6.916;2022-11-15T07:08:34;2.37;;;1.70;;
76262;SDS011;65080;50.908;6.916;2022-11-15T07:11:03;5.63;;;1.87;;
76262;SDS011;65080;50.908;6.916;2022-11-15T07:13:33;4.43;;;2.00;;
76262;SDS011;65080;50.908;6.916;2022-11-15T07:16:03;5.20;;;2.20;;
76262;SDS011;65080;50.908;6.916;2022-11-15T07:18:33;2.37;;;2.00;;
76262;SDS011;65080;50.908;6.916;2022-11-15T07:21:02;3.70;;;1.67;;
76262;SDS011;65080;50.908;6.916;2022-11-15T07:23:33;1.90;;;1.60;;
76262;SDS011;65080;50.908;6.916;2022-11-15T07:26:03;4.83;;;1.77;;
76262;SDS011;65080;50.908;6.916;2022-11-15T07:28:31;2.10;;;1.80;;
76262;SDS011;65080;50.908;6.916;2022-11-15T07:31:01;2.37;;;1.80;;
76262;SDS011;65080;50.908;6.916;2022-11-15T07:33:30;2.13;;;1.80;;
76262;SDS011;65080;50.908;6.916;2022-11-15T07:35:59;2.13;;;1.60;;
76262;SDS011;65080;50.908;6.916;2022-11-15T07:38:30;2.40;;;1.47;;
76262;SDS011;65080;50.908;6.916;2022-11-15T07:41:05;2.77;;;1.43;;
76262;SDS011;65080;50.908;6.916;2022-11-15T07:43:33;2.90;;;2.13;;
76262;SDS011;65080;50.908;6.916;2022-11-15T07:46:04;3.30;;;1.40;;
76262;SDS011;65080;50.908;6.916;2022-11-15T07:48:35;1.33;;;1.13;;
76262;SDS011;65080;50.908;6.916;2022-11-15T07:51:11;2.13;;;1.50;;
76262;SDS011;65080;50.908;6.916;2022-11-15T07:53:42;1.77;;;1.20;;
76262;SDS011;65080;50.908;6.916;2022-11-15T07:56:11;6.37;;;1.10;;
76262;SDS011;65080;50.908;6.916;2022-11-15T07:58:40;1.70;;;1.37;;
76262;SDS011;65080;50.908;6.916;2022-11-15T08:01:09;1.90;;;1.47;;
76262;SDS011;65080;50.908;6.916;2022-11-15T08:03:38;4.20;;;1.30;;
76262;SDS011;65080;50.908;6.916;2022-11-15T08:06:06;2.00;;;1.30;;
76262;SDS011;65080;50.908;6.916;2022-11-15T08:08:34;3.13;;;1.43;;
76262;SDS011;65080;50.908;6.916;2022-11-15T08:11:04;1.77;;;1.37;;
76262;SDS011;65080;50.908;6.916;2022-11-15T08:13:32;2.93;;;1.30;;
76262;SDS011;65080;50.908;6.916;2022-11-15T08:16:01;3.83;;;1.50;;
76262;SDS011;65080;50.908;6.916;2022-11-15T08:18:31;1.80;;;1.60;;
76262;SDS011;65080;50.908;6.916;2022-11-15T08:21:00;2.10;;;1.50;;
76262;SDS011;65080;50.908;6.916;2022-11-15T08:23:28;3.10;;;1.20;;
76262;SDS011;65080;50.908;6.916;2022-11-15T08:26:01;3.47;;;1.40;;
76262;SDS011;65080;50.908;6.916;2022-11-15T08:28:31;1.60;;;1.47;;
76262;SDS011;65080;50.908;6.916;2022-11-15T08:30:59;1.50;;;1.10;;
76262;SDS011;65080;50.908;6.916;2022-11-15T08:33:28;3.30;;;1.57;;
76262;SDS011;65080;50.908;6.916;2022-11-15T08:35:57;1.80;;;1.17;;
76262;SDS011;65080;50.908;6.916;2022-11-15T08:38:25;4.00;;;1.47;;
76262;SDS011;65080;50.908;6.916;2022-11-15T08:40:59;4.00;;;1.50;;
76262;SDS011;65080;50.908;6.916;2022-11-15T08:43:28;1.53;;;1.07;;
76262;SDS011;65080;50.908;6.916;2022-11-15T08:45:59;3.00;;;1.57;;
76262;SDS011;65080;50.908;6.916;2022-11-15T08:48:27;2.20;;;1.27;;
76262;SDS011;65080;50.908;6.916;2022-11-15T08:50:55;1.37;;;1.00;;
76262;SDS011;65080;50.908;6.916;2022-11-15T08:53:24;1.53;;;1.43;;
76262;SDS011;65080;50.908;6.916;2022-11-15T08:55:52;1.30;;;1.10;;
76262;SDS011;65080;50.908;6.916;2022-11-15T08:58:21;2.50;;;1.20;;
76262;SDS011;65080;50.908;6.916;2022-11-15T09:00:49;1.63;;;1.30;;
76262;SDS011;65080;50.908;6.916;2022-11-15T09:03:18;3.37;;;1.30;;
76262;SDS011;65080;50.908;6.916;2022-11-15T09:05:46;7.57;;;1.50;;
76262;SDS011;65080;50.908;6.916;2022-11-15T09:08:14;2.20;;;1.20;;
76262;SDS011;65080;50.908;6.916;2022-11-15T09:11:03;4.43;;;1.63;;
76262;SDS011;65080;50.908;6.916;2022-11-15T09:13:32;2.73;;;1.20;;
76262;SDS011;65080;50.908;6.916;2022-11-15T09:16:01;1.93;;;1.00;;
76262;SDS011;65080;50.908;6.916;2022-11-15T09:18:30;2.87;;;1.73;;
76262;SDS011;65080;50.908;6.916;2022-11-15T09:21:00;1.93;;;1.10;;
76262;SDS011;65080;50.908;6.916;2022-11-15T09:23:29;1.63;;;0.90;;
76262;SDS011;65080;50.908;6.916;2022-11-15T09:25:58;3.17;;;1.40;;
76262;SDS011;65080;50.908;6.916;2022-11-15T09:28:29;2.63;;;1.00;;
76262;SDS011;65080;50.908;6.916;2022-11-15T09:30:58;2.60;;;0.80;;
76262;SDS011;65080;50.908;6.916;2022-11-15T09:33:27;2.20;;;1.50;;
76262;SDS011;65080;50.908;6.916;2022-11-15T09:36:00;4.20;;;1.10;;
76262;SDS011;65080;50.908;6.916;2022-11-15T09:38:29;1.10;;;1.00;;
76262;SDS011;65080;50.908;6.916;2022-11-15T09:44:13;4.83;;;1.13;;
76262;SDS011;65080;50.908;6.916;2022-11-15T09:46:55;2.20;;;0.90;;
76262;SDS011;65080;50.908;6.916;2022-11-15T09:49:32;2.03;;;0.73;;
76262;SDS011;65080;50.908;6.916;2022-11-15T09:52:02;3.67;;;1.10;;
76262;SDS011;65080;50.908;6.916;2022-11-15T09:54:31;4.17;;;1.10;;
76262;SDS011;65080;50.908;6.916;2022-11-15T09:57:23;1.20;;;0.80;;
76262;SDS011;65080;50.908;6.916;2022-11-15T10:00:02;2.17;;;1.00;;
76262;SDS011;65080;50.908;6.916;2022-11-15T10:03:00;1.10;;;0.70;;
76262;SDS011;65080;50.908;6.916;2022-11-15T10:05:38;1.77;;;0.90;;
76262;SDS011;65080;50.908;6.916;2022-11-15T10:08:13;1.53;;;0.80;;
76262;SDS011;65080;50.908;6.916;2022-11-15T10:10:57;3.70;;;0.80;;
76262;SDS011;65080;50.908;6.916;2022-11-15T10:13:46;1.33;;;0.70;;
76262;SDS011;65080;50.908;6.916;2022-11-15T10:19:12;1.40;;;0.80;;
76262;SDS011;65080;50.908;6.916;2022-11-15T10:21:49;2.47;;;0.90;;
76262;SDS011;65080;50.908;6.916;2022-11-15T10:24:30;1.60;;;0.87;;
76262;SDS011;65080;50.908;6.916;2022-11-15T10:27:06;2.13;;;1.10;;
76262;SDS011;65080;50.908;6.916;2022-11-15T10:29:42;1.07;;;0.60;;
76262;SDS011;65080;50.908;6.916;2022-11-15T10:32:11;2.40;;;0.70;;
76262;SDS011;65080;50.908;6.916;2022-11-15T10:34:39;2.63;;;0.77;;
76262;SDS011;65080;50.908;6.916;2022-11-15T10:37:07;2.60;;;0.73;;
76262;SDS011;65080;50.908;6.916;2022-11-15T10:39:37;2.77;;;0.97;;
76262;SDS011;65080;50.908;6.916;2022-11-15T10:42:15;3.23;;;0.87;;
76262;SDS011;65080;50.908;6.916;2022-11-15T10:44:45;1.63;;;0.70;;
76262;SDS011;65080;50.908;6.916;2022-11-15T10:47:23;2.57;;;0.73;;
76262;SDS011;65080;50.908;6.916;2022-11-15T10:50:00;2.57;;;0.80;;
76262;SDS011;65080;50.908;6.916;2022-11-15T10:52:31;2.07;;;0.73;;
76262;SDS011;65080;50.908;6.916;2022-11-15T10:55:05;2.60;;;0.70;;
76262;SDS011;65080;50.908;6.916;2022-11-15T10:57:49;3.13;;;0.60;;
76262;SDS011;65080;50.908;6.916;2022-11-15T11:00:29;2.30;;;0.83;;
76262;SDS011;65080;50.908;6.916;2022-11-15T11:03:01;1.47;;;1.20;;
76262;SDS011;65080;50.908;6.916;2022-11-15T11:05:31;1.30;;;0.70;;
76262;SDS011;65080;50.908;6.916;2022-11-15T11:08:19;3.27;;;0.90;;
76262;SDS011;65080;50.908;6.916;2022-11-15T11:10:53;4.33;;;1.20;;
76262;SDS011;65080;50.908;6.916;2022-11-15T11:13:29;1.70;;;0.87;;
76262;SDS011;65080;50.908;6.916;2022-11-15T11:15:59;3.23;;;1.10;;
76262;SDS011;65080;50.908;6.916;2022-11-15T11:18:46;2.10;;;0.70;;
76262;SDS011;65080;50.908;6.916;2022-11-15T11:21:25;1.50;;;0.70;;
76262;SDS011;65080;50.908;6.916;2022-11-15T11:24:07;5.23;;;0.70;;
76262;SDS011;65080;50.908;6.916;2022-11-15T11:26:48;1.70;;;0.67;;
76262;SDS011;65080;50.908;6.916;2022-11-15T11:29:27;2.27;;;0.93;;
76262;SDS011;65080;50.908;6.916;2022-11-15T11:32:09;1.67;;;0.80;;
76262;SDS011;65080;50.908;6.916;2022-11-15T11:34:51;4.03;;;0.60;;
76262;SDS011;65080;50.908;6.916;2022-11-15T11:37:28;4.60;;;0.90;;
76262;SDS011;65080;50.908;6.916;2022-11-15T11:40:05;4.37;;;0.93;;
76262;SDS011;65080;50.908;6.916;2022-11-15T11:42:46;2.10;;;0.60;;
76262;SDS011;65080;50.908;6.916;2022-11-15T11:45:27;1.43;;;0.73;;
76262;SDS011;65080;50.908;6.916;2022-11-15T11:51:10;1.90;;;0.70;;
76262;SDS011;65080;50.908;6.916;2022-11-15T11:53:45;8.07;;;1.13;;
76262;SDS011;65080;50.908;6.916;2022-11-15T11:56:21;3.77;;;0.93;;
76262;SDS011;65080;50.908;6.916;2022-11-15T11:58:54;2.40;;;0.80;;
76262;SDS011;65080;50.908;6.916;2022-11-15T12:01:29;1.90;;;1.10;;
76262;SDS011;65080;50.908;6.916;2022-11-15T12:04:01;2.30;;;1.23;;
76262;SDS011;65080;50.908;6.916;2022-11-15T12:06:35;2.50;;;1.10;;
76262;SDS011;65080;50.908;6.916;2022-11-15T12:09:10;3.23;;;0.90;;
76262;SDS011;65080;50.908;6.916;2022-11-15T12:11:43;1.87;;;0.73;;
76262;SDS011;65080;50.908;6.916;2022-11-15T12:14:24;2.63;;;1.33;;
76262;SDS011;65080;50.908;6.916;2022-11-15T12:16:56;2.00;;;0.80;;
76262;SDS011;65080;50.908;6.916;2022-11-15T12:19:25;3.90;;;1.00;;
76262;SDS011;65080;50.908;6.916;2022-11-15T12:21:58;2.17;;;1.13;;
76262;SDS011;65080;50.908;6.916;2022-11-15T12:24:32;1.40;;;0.70;;
76262;SDS011;65080;50.908;6.916;2022-11-15T12:27:09;2.30;;;0.97;;
76262;SDS011;65080;50.908;6.916;2022-11-15T12:29:53;4.20;;;0.80;;
76262;SDS011;65080;50.908;6.916;2022-11-15T12:32:25;3.07;;;0.70;;
76262;SDS011;65080;50.908;6.916;2022-11-15T12:34:56;2.60;;;1.00;;
76262;SDS011;65080;50.908;6.916;2022-11-15T12:40:22;2.80;;;0.87;;
76262;SDS011;65080;50.908;6.916;2022-11-15T12:46:18;2.67;;;1.30;;
76262;SDS011;65080;50.908;6.916;2022-11-15T12:48:52;2.53;;;0.90;;
76262;SDS011;65080;50.908;6.916;2022-11-15T12:51:23;3.17;;;1.10;;
76262;SDS011;65080;50.908;6.916;2022-11-15T12:54:57;3.90;;;0.90;;
76262;SDS011;65080;50.908;6.916;2022-11-15T12:57:33;4.43;;;0.97;;
76262;SDS011;65080;50.908;6.916;2022-11-15T13:06:04;8.80;;;1.03;;
76262;SDS011;65080;50.908;6.916;2022-11-15T13:08:56;3.80;;;1.00;;
76262;SDS011;65080;50.908;6.916;2022-11-15T13:17:28;1.97;;;1.10;;
76262;SDS011;65080;50.908;6.916;2022-11-15T13:20:20;3.07;;;1.50;;
76262;SDS011;65080;50.908;6.916;2022-11-15T13:22:51;8.17;;;1.60;;
76262;SDS011;65080;50.908;6.916;2022-11-15T13:25:38;2.63;;;1.30;;
76262;SDS011;65080;50.908;6.916;2022-11-15T13:28:31;3.23;;;1.40;;
76262;SDS011;65080;50.908;6.916;2022-11-15T13:31:02;5.90;;;1.53;;
76262;SDS011;65080;50.908;6.916;2022-11-15T13:33:44;5.30;;;1.60;;
76262;SDS011;65080;50.908;6.916;2022-11-15T13:36:14;3.47;;;1.40;;
76262;SDS011;65080;50.908;6.916;2022-11-15T13:38:43;4.17;;;1.90;;
76262;SDS011;65080;50.908;6.916;2022-11-15T13:41:17;2.90;;;1.80;;
76262;SDS011;65080;50.908;6.916;2022-11-15T13:43:48;3.30;;;2.17;;
76262;SDS011;65080;50.908;6.916;2022-11-15T13:46:18;1.57;;;1.40;;
76262;SDS011;65080;50.908;6.916;2022-11-15T13:48:50;3.73;;;2.10;;
76262;SDS011;65080;50.908;6.916;2022-11-15T13:51:21;3.23;;;1.77;;
76262;SDS011;65080;50.908;6.916;2022-11-15T13:53:58;4.23;;;2.07;;
76262;SDS011;65080;50.908;6.916;2022-11-15T13:56:29;5.73;;;2.10;;
76262;SDS011;65080;50.908;6.916;2022-11-15T13:59:07;8.17;;;2.50;;
76262;SDS011;65080;50.908;6.916;2022-11-15T14:01:36;2.73;;;2.00;;
76262;SDS011;65080;50.908;6.916;2022-11-15T14:04:10;3.87;;;1.80;;
76262;SDS011;65080;50.908;6.916;2022-11-15T14:06:44;3.20;;;1.80;;
76262;SDS011;65080;50.908;6.916;2022-11-15T14:12:24;2.83;;;1.60;;
76262;SDS011;65080;50.908;6.916;2022-11-15T14:15:00;2.90;;;1.80;;
76262;SDS011;65080;50.908;6.916;2022-11-15T14:17:34;5.93;;;2.30;;
76262;SDS011;65080;50.908;6.916;2022-11-15T14:20:24;2.60;;;1.70;;
76262;SDS011;65080;50.908;6.916;2022-11-15T14:22:57;3.03;;;2.00;;
76262;SDS011;65080;50.908;6.916;2022-11-15T14:25:27;3.40;;;2.37;;
76262;SDS011;65080;50.908;6.916;2022-11-15T14:28:10;7.70;;;1.80;;
76262;SDS011;65080;50.908;6.916;2022-11-15T14:30:45;3.73;;;2.17;;
76262;SDS011;65080;50.908;6.916;2022-11-15T14:33:20;5.73;;;2.07;;
76262;SDS011;65080;50.908;6.916;2022-11-15T14:35:50;3.83;;;1.93;;
76262;SDS011;65080;50.908;6.916;2022-11-15T14:38:18;2.90;;;1.90;;
76262;SDS011;65080;50.908;6.916;2022-11-15T14:40:47;3.37;;;1.87;;
76262;SDS011;65080;50.908;6.916;2022-11-15T14:43:15;3.17;;;2.10;;
76262;SDS011;65080;50.908;6.916;2022-11-15T14:45:44;3.93;;;2.07;;
76262;SDS011;65080;50.908;6.916;2022-11-15T14:48:13;2.13;;;1.70;;
76262;SDS011;65080;50.908;6.916;2022-11-15T14:50:41;2.50;;;1.67;;
76262;SDS011;65080;50.908;6.916;2022-11-15T14:53:11;3.10;;;1.80;;
76262;SDS011;65080;50.908;6.916;2022-11-15T14:55:40;3.97;;;2.33;;
76262;SDS011;65080;50.908;6.916;2022-11-15T14:58:09;3.30;;;1.87;;
76262;SDS011;65080;50.908;6.916;2022-11-15T15:00:38;3.37;;;1.60;;
76262;SDS011;65080;50.908;6.916;2022-11-15T15:03:08;2.60;;;1.40;;
76262;SDS011;65080;50.908;6.916;2022-11-15T15:05:37;3.90;;;1.90;;
76262;SDS011;65080;50.908;6.916;2022-11-15T15:08:07;3.80;;;2.03;;
76262;SDS011;65080;50.908;6.916;2022-11-15T15:10:37;2.37;;;1.73;;
76262;SDS011;65080;50.908;6.916;2022-11-15T15:13:10;2.03;;;1.53;;
76262;SDS011;65080;50.908;6.916;2022-11-15T15:15:44;2.20;;;1.40;;
76262;SDS011;65080;50.908;6.916;2022-11-15T15:18:13;3.23;;;1.57;;
76262;SDS011;65080;50.908;6.916;2022-11-15T15:20:42;2.87;;;1.60;;
76262;SDS011;65080;50.908;6.916;2022-11-15T15:23:15;2.57;;;1.27;;
76262;SDS011;65080;50.908;6.916;2022-11-15T15:25:45;5.77;;;1.80;;
76262;SDS011;65080;50.908;6.916;2022-11-15T15:28:15;5.50;;;1.17;;
76262;SDS011;65080;50.908;6.916;2022-11-15T15:30:43;5.43;;;1.30;;
76262;SDS011;65080;50.908;6.916;2022-11-15T15:33:11;1.80;;;1.40;;
76262;SDS011;65080;50.908;6.916;2022-11-15T15:35:40;2.30;;;1.60;;
76262;SDS011;65080;50.908;6.916;2022-11-15T15:38:10;3.13;;;1.80;;
76262;SDS011;65080;50.908;6.916;2022-11-15T15:40:39;3.90;;;2.23;;
76262;SDS011;65080;50.908;6.916;2022-11-15T15:43:07;4.23;;;1.60;;
76262;SDS011;65080;50.908;6.916;2022-11-15T15:45:36;2.80;;;1.30;;
76262;SDS011;65080;50.908;6.916;2022-11-15T15:48:05;1.77;;;1.50;;